createdAt,value
2022-10-19T00:00:13.716Z,100270.72
2022-10-19T00:03:18.278Z,100282.25
2022-10-19T00:06:26.591Z,100264.78
2022-10-19T00:09:29.234Z,100268.84
2022-10-19T00:12:31.012Z,100271.84
2022-10-19T00:15:32.550Z,100269.75
2022-10-19T00:18:34.286Z,100271.34
2022-10-19T00:21:35.881Z,100266.53
2022-10-19T00:24:37.421Z,100263.28
2022-10-19T00:27:39.000Z,100251.94
2022-10-19T00:30:40.617Z,100259.19
2022-10-19T00:33:42.702Z,100253.88
2022-10-19T00:36:44.233Z,100252.25
2022-10-19T00:39:45.778Z,100243.69
2022-10-19T00:42:47.334Z,100243.13
2022-10-19T00:45:48.889Z,100242.25
2022-10-19T00:48:50.768Z,100240.59
2022-10-19T00:51:53.461Z,100235.53
2022-10-19T00:54:55.210Z,100238.31
2022-10-19T00:57:56.778Z,100236.34
2022-10-19T01:00:59.457Z,100231.03
2022-10-19T01:04:01.540Z,100236.34
2022-10-19T01:07:05.911Z,100234.03
2022-10-19T01:10:07.814Z,100227.47
2022-10-19T01:13:28.879Z,100226.16
2022-10-19T01:16:39.549Z,100241.31
2022-10-19T01:19:53.147Z,100239.00
2022-10-19T01:22:54.743Z,100240.94
2022-10-19T01:26:02.397Z,100241.53
2022-10-19T01:29:09.792Z,100232.88
2022-10-19T01:32:21.286Z,100247.34
2022-10-19T01:35:27.958Z,100245.63
2022-10-19T01:38:48.246Z,100241.69
2022-10-19T01:42:08.226Z,100233.50
2022-10-19T01:45:17.996Z,100235.22
2022-10-19T01:48:23.412Z,100230.69
2022-10-19T01:51:27.050Z,100225.06
2022-10-19T01:54:30.681Z,100222.50
2022-10-19T01:57:33.931Z,100226.22
2022-10-19T02:00:35.802Z,100221.91
2022-10-19T02:03:37.679Z,100216.94
2022-10-19T02:06:39.294Z,100225.72
2022-10-19T02:09:40.791Z,100206.09
2022-10-19T02:12:42.358Z,100211.72
2022-10-19T02:15:45.140Z,100200.63
2022-10-19T02:18:47.565Z,100200.28
2022-10-19T02:21:49.107Z,100200.28
2022-10-19T02:24:50.660Z,100195.44
2022-10-19T02:27:52.197Z,100195.91
2022-10-19T02:30:53.837Z,100191.66
2022-10-19T02:33:55.377Z,100185.84
2022-10-19T02:36:57.086Z,100186.75
2022-10-19T02:39:58.646Z,100186.44
2022-10-19T02:43:04.534Z,100186.09
2022-10-19T02:46:32.318Z,100182.72
2022-10-19T02:49:34.663Z,100182.38
2022-10-19T02:52:42.321Z,100169.31
2022-10-19T02:55:43.900Z,100160.28
2022-10-19T02:58:45.437Z,100163.28
2022-10-19T03:01:47.160Z,100166.28
2022-10-19T03:04:48.871Z,100159.38
2022-10-19T03:07:50.506Z,100162.25
2022-10-19T03:10:52.018Z,100169.41
2022-10-19T03:13:53.563Z,100169.66
2022-10-19T03:16:55.091Z,100164.69
2022-10-19T03:19:56.662Z,100165.72
2022-10-19T03:22:58.172Z,100163.03
2022-10-19T03:25:59.770Z,100163.53
2022-10-19T03:29:01.448Z,100148.28
2022-10-19T03:32:03.138Z,100137.41
2022-10-19T03:35:04.969Z,100137.13
2022-10-19T03:38:06.550Z,100133.03
2022-10-19T03:41:08.430Z,100130.78
2022-10-19T03:44:10.311Z,100128.44
2022-10-19T03:47:11.864Z,100126.19
2022-10-19T03:50:14.297Z,100134.81
2022-10-19T03:53:15.917Z,100125.03
2022-10-19T03:56:18.253Z,100124.53
2022-10-19T03:59:19.894Z,100114.25
2022-10-19T04:02:21.424Z,100119.28
2022-10-19T04:05:22.937Z,100113.41
2022-10-19T04:08:24.453Z,100114.22
2022-10-19T04:11:26.874Z,100116.63
2022-10-19T04:14:32.595Z,100124.59
2022-10-19T04:17:40.635Z,100120.44
2022-10-19T04:20:43.861Z,100132.38
2022-10-19T04:23:45.389Z,100145.31
2022-10-19T04:26:48.482Z,100127.97
2022-10-19T04:29:50.035Z,100140.19
2022-10-19T04:32:51.613Z,100127.88
2022-10-19T04:35:58.073Z,100124.03
2022-10-19T04:38:59.782Z,100125.66
2022-10-19T04:42:01.333Z,100130.50
2022-10-19T04:45:02.950Z,100120.31
2022-10-19T04:48:05.648Z,100105.19
2022-10-19T04:51:07.394Z,100106.78
2022-10-19T04:54:09.154Z,100108.72
2022-10-19T04:57:10.695Z,100116.94
2022-10-19T05:00:12.501Z,100114.84
2022-10-19T05:03:14.220Z,100123.75
2022-10-19T05:06:15.932Z,100114.47
2022-10-19T05:09:17.493Z,100115.50
2022-10-19T05:12:19.017Z,100114.00
2022-10-19T05:15:20.711Z,100106.00
2022-10-19T05:18:22.254Z,100105.69
2022-10-19T05:21:23.826Z,100100.38
2022-10-19T05:24:26.049Z,100095.53
2022-10-19T05:27:28.532Z,100091.75
2022-10-19T05:30:30.050Z,100093.28
2022-10-19T05:33:31.628Z,100081.00
2022-10-19T05:36:34.903Z,100085.75
2022-10-19T05:39:36.670Z,100078.59
2022-10-19T05:42:38.310Z,100081.00
2022-10-19T05:45:39.989Z,100075.47
2022-10-19T05:48:41.628Z,100074.06
2022-10-19T05:51:43.405Z,100074.41
2022-10-19T05:54:44.985Z,100063.84
2022-10-19T05:57:46.544Z,100058.88
2022-10-19T06:00:54.450Z,100051.63
2022-10-19T06:03:56.768Z,100052.41
2022-10-19T06:06:58.294Z,100045.72
2022-10-19T06:09:59.831Z,100037.97
2022-10-19T06:13:01.346Z,100042.16
2022-10-19T06:16:03.096Z,100047.22
2022-10-19T06:19:04.962Z,100049.34
2022-10-19T06:22:06.489Z,100039.75
2022-10-19T06:25:08.284Z,100036.13
2022-10-19T06:28:09.902Z,100038.31
2022-10-19T06:31:12.567Z,100039.44
2022-10-19T06:34:14.197Z,100029.63
2022-10-19T06:37:15.799Z,100029.06
2022-10-19T06:40:17.398Z,100027.22
2022-10-19T06:43:18.997Z,100017.38
2022-10-19T06:46:22.078Z,100021.56
2022-10-19T06:49:23.589Z,100025.75
2022-10-19T06:52:25.137Z,100030.81
2022-10-19T06:55:26.717Z,100024.78
2022-10-19T06:58:28.371Z,100023.25
2022-10-19T07:01:30.021Z,100027.63
2022-10-19T07:04:31.639Z,100024.47
2022-10-19T07:07:33.467Z,100020.50
2022-10-19T07:10:36.318Z,100028.50
2022-10-19T07:13:38.210Z,100024.31
2022-10-19T07:16:39.713Z,100020.09
2022-10-19T07:19:41.271Z,100014.53
2022-10-19T07:22:42.825Z,100006.88
2022-10-19T07:25:44.371Z,100002.13
2022-10-19T07:28:46.974Z,99996.66
2022-10-19T07:31:48.500Z,100000.53
2022-10-19T07:34:50.009Z,100000.69
2022-10-19T07:37:51.530Z,100004.53
2022-10-19T07:40:59.423Z,100007.03
2022-10-19T07:44:01.389Z,100007.41
2022-10-19T07:47:04.650Z,100005.88
2022-10-19T07:50:06.221Z,100016.03
2022-10-19T07:53:07.780Z,100013.91
2022-10-19T07:56:10.533Z,100001.97
2022-10-19T07:59:14.378Z,100012.94
2022-10-19T08:02:16.974Z,99998.88
2022-10-19T08:05:19.275Z,100000.78
2022-10-19T08:08:21.189Z,100007.28
2022-10-19T08:11:22.723Z,100011.88
2022-10-19T08:14:24.284Z,100004.81
2022-10-19T08:17:25.850Z,100012.91
2022-10-19T08:20:27.377Z,100027.34
2022-10-19T08:23:28.893Z,100021.22
2022-10-19T08:26:31.072Z,100009.75
2022-10-19T08:29:32.593Z,100010.91
2022-10-19T08:32:34.590Z,100001.66
2022-10-19T08:35:36.744Z,100008.09
2022-10-19T08:38:38.418Z,99987.59
2022-10-19T08:41:39.982Z,99990.66
2022-10-19T08:44:50.793Z,99981.31
2022-10-19T08:47:59.024Z,99978.91
2022-10-19T08:51:00.672Z,99959.50
2022-10-19T08:54:02.854Z,99968.31
2022-10-19T08:57:13.429Z,99970.44
2022-10-19T09:00:21.344Z,99965.41
2022-10-19T09:03:54.300Z,99962.69
2022-10-19T09:06:57.427Z,99961.09
2022-10-19T09:10:05.239Z,99960.31
2022-10-19T09:13:15.062Z,99953.66
2022-10-19T09:16:17.943Z,99941.13
2022-10-19T09:19:25.740Z,99942.44
2022-10-19T09:22:29.730Z,99941.88
2022-10-19T09:25:31.358Z,99942.97
2022-10-19T09:28:59.533Z,99951.72
2022-10-19T09:32:01.559Z,99938.34
2022-10-19T09:35:05.310Z,99934.91
2022-10-19T09:38:07.168Z,99933.63
2022-10-19T09:41:13.159Z,99944.31
2022-10-19T09:44:14.872Z,99946.53
2022-10-19T09:47:28.618Z,99944.50
2022-10-19T09:50:30.534Z,99942.69
2022-10-19T09:53:32.063Z,99938.69
2022-10-19T09:56:36.995Z,99940.06
2022-10-19T09:59:38.504Z,99941.97
2022-10-19T10:02:40.084Z,99940.91
2022-10-19T10:05:42.229Z,99929.88
2022-10-19T10:08:47.824Z,99930.69
2022-10-19T10:11:50.384Z,99918.50
2022-10-19T10:14:53.053Z,99925.75
2022-10-19T10:17:55.275Z,99930.03
2022-10-19T10:21:07.155Z,99928.94
2022-10-19T10:24:11.618Z,99937.50
2022-10-19T10:27:19.640Z,99934.59
2022-10-19T10:30:21.155Z,99922.59
2022-10-19T10:33:40.330Z,99922.50
2022-10-19T10:36:48.688Z,99922.28
2022-10-19T10:39:53.976Z,99920.44
2022-10-19T10:42:56.966Z,99922.59
2022-10-19T10:46:05.758Z,99908.16
2022-10-19T10:49:07.800Z,99912.91
2022-10-19T10:52:13.038Z,99910.44
2022-10-19T10:55:17.281Z,99897.56
2022-10-19T10:58:19.904Z,99890.31
2022-10-19T11:01:26.695Z,99898.19
2022-10-19T11:04:35.750Z,99890.06
2022-10-19T11:07:37.801Z,99880.91
2022-10-19T11:10:41.496Z,99887.53
2022-10-19T11:13:46.205Z,99878.13
2022-10-19T11:16:48.006Z,99875.41
2022-10-19T11:19:52.463Z,99862.69
2022-10-19T11:23:14.073Z,99866.50
2022-10-19T11:26:34.488Z,99858.78
2022-10-19T11:29:36.055Z,99852.88
2022-10-19T11:33:03.910Z,99856.56
2022-10-19T11:36:10.138Z,99846.66
2022-10-19T11:39:30.581Z,99849.63
2022-10-19T11:42:44.298Z,99841.09
2022-10-19T11:45:58.718Z,99837.94
2022-10-19T11:49:06.330Z,99844.63
2022-10-19T11:52:13.178Z,99838.25
2022-10-19T11:55:17.796Z,99838.56
2022-10-19T11:58:19.362Z,99819.97
2022-10-19T12:01:27.261Z,99817.06
2022-10-19T12:04:44.116Z,99815.81
2022-10-19T12:07:45.750Z,99799.31
2022-10-19T12:10:53.408Z,99799.63
2022-10-19T12:13:56.108Z,99795.44
2022-10-19T12:16:59.683Z,99794.69
2022-10-19T12:20:08.999Z,99795.75
2022-10-19T12:23:21.982Z,99781.09
2022-10-19T12:26:23.516Z,99776.56
2022-10-19T12:29:26.080Z,99775.50
2022-10-19T12:32:27.614Z,99773.09
2022-10-19T12:35:40.721Z,99771.50
2022-10-19T12:38:47.988Z,99764.00
2022-10-19T12:42:04.746Z,99773.03
2022-10-19T12:45:13.713Z,99764.50
2022-10-19T12:48:18.765Z,99757.59
2022-10-19T12:51:20.284Z,99752.53
2022-10-19T12:54:34.639Z,99742.13
2022-10-19T12:57:36.476Z,99746.41
2022-10-19T13:00:38.384Z,99744.25
2022-10-19T13:03:41.288Z,99734.59
2022-10-19T13:06:43.923Z,99722.88
2022-10-19T13:09:48.538Z,99714.88
2022-10-19T13:12:51.531Z,99709.78
2022-10-19T13:15:53.081Z,99705.28
2022-10-19T13:19:12.908Z,99694.03
2022-10-19T13:22:24.654Z,99697.75
2022-10-19T13:25:27.854Z,99696.72
2022-10-19T13:28:29.430Z,99698.31
2022-10-19T13:31:31.447Z,99680.69
2022-10-19T13:34:33.711Z,99675.13
2022-10-19T13:37:35.223Z,99668.44
2022-10-19T13:40:56.984Z,99667.34
2022-10-19T13:44:15.219Z,99659.34
2022-10-19T13:47:29.604Z,99661.22
2022-10-19T13:50:32.546Z,99647.88
2022-10-19T13:53:42.018Z,99647.88
2022-10-19T13:56:55.954Z,99642.00
2022-10-19T14:00:03.356Z,99630.81
2022-10-19T14:03:31.590Z,99627.06
2022-10-19T14:06:33.877Z,99627.88
2022-10-19T14:09:40.677Z,99623.59
2022-10-19T14:12:42.561Z,99611.84
2022-10-19T14:15:54.255Z,99604.09
2022-10-19T14:18:56.017Z,99609.44
2022-10-19T14:21:58.854Z,99599.03
2022-10-19T14:25:05.586Z,99593.13
2022-10-19T14:28:07.185Z,99588.34
2022-10-19T14:31:09.492Z,99593.69
2022-10-19T14:34:11.068Z,99582.47
2022-10-19T14:37:22.541Z,99579.81
2022-10-19T14:40:29.039Z,99574.75
2022-10-19T14:43:31.885Z,99577.69
2022-10-19T14:46:33.789Z,99567.28
2022-10-19T14:49:35.433Z,99565.41
2022-10-19T14:52:37.739Z,99568.59
2022-10-19T14:55:39.355Z,99562.75
2022-10-19T14:58:59.639Z,99554.47
2022-10-19T15:02:01.856Z,99559.25
2022-10-19T15:05:04.469Z,99563.00
2022-10-19T15:08:06.775Z,99555.78
2022-10-19T15:11:08.785Z,99550.72
2022-10-19T15:14:14.277Z,99540.31
2022-10-19T15:17:24.184Z,99529.59
2022-10-19T15:20:27.627Z,99525.38
2022-10-19T15:23:29.358Z,99529.59
2022-10-19T15:26:30.977Z,99533.06
2022-10-19T15:29:32.492Z,99524.00
2022-10-19T15:32:38.122Z,99534.69
2022-10-19T15:35:41.261Z,99529.59
2022-10-19T15:38:43.883Z,99532.53
2022-10-19T15:41:45.398Z,99528.53
2022-10-19T15:44:46.967Z,99531.72
2022-10-19T15:48:05.798Z,99526.94
2022-10-19T15:51:25.794Z,99514.13
2022-10-19T15:54:27.301Z,99504.25
2022-10-19T15:57:38.840Z,99501.06
2022-10-19T16:00:41.121Z,99493.88
2022-10-19T16:03:42.601Z,99492.50
2022-10-19T16:06:44.757Z,99486.66
2022-10-19T16:09:46.271Z,99481.84
2022-10-19T16:12:47.812Z,99466.91
2022-10-19T16:15:56.791Z,99469.31
2022-10-19T16:19:12.393Z,99482.38
2022-10-19T16:22:14.274Z,99466.38
2022-10-19T16:25:15.859Z,99456.75
2022-10-19T16:28:17.575Z,99452.75
2022-10-19T16:31:19.183Z,99449.28
2022-10-19T16:34:20.663Z,99449.56
2022-10-19T16:37:22.165Z,99436.19
2022-10-19T16:40:24.654Z,99428.47
2022-10-19T16:43:26.156Z,99435.69
2022-10-19T16:46:28.833Z,99427.41
2022-10-19T16:49:30.405Z,99418.63
2022-10-19T16:52:33.206Z,99421.00
2022-10-19T16:55:35.104Z,99428.19
2022-10-19T16:58:37.317Z,99422.88
2022-10-19T17:01:38.956Z,99418.88
2022-10-19T17:04:40.472Z,99406.88
2022-10-19T17:07:42.013Z,99406.34
2022-10-19T17:10:43.706Z,99396.75
2022-10-19T17:13:45.838Z,99399.94
2022-10-19T17:16:47.395Z,99398.06
2022-10-19T17:19:49.294Z,99389.03
2022-10-19T17:22:53.805Z,99387.16
2022-10-19T17:25:55.352Z,99399.69
2022-10-19T17:28:57.086Z,99396.47
2022-10-19T17:31:58.726Z,99401.81
2022-10-19T17:35:00.250Z,99401.81
2022-10-19T17:38:01.744Z,99398.63
2022-10-19T17:41:04.152Z,99375.72
2022-10-19T17:44:05.653Z,99378.09
2022-10-19T17:47:07.129Z,99377.56
2022-10-19T17:50:08.843Z,99384.50
2022-10-19T17:53:10.339Z,99384.50
2022-10-19T17:56:12.773Z,99387.44
2022-10-19T17:59:14.293Z,99392.50
2022-10-19T18:02:15.814Z,99392.22
2022-10-19T18:05:17.435Z,99385.31
2022-10-19T18:08:18.922Z,99385.81
2022-10-19T18:11:21.594Z,99379.69
2022-10-19T18:14:23.075Z,99381.03
2022-10-19T18:17:27.651Z,99384.50
2022-10-19T18:20:30.027Z,99395.41
2022-10-19T18:23:31.695Z,99385.56
2022-10-19T18:26:33.793Z,99377.03
2022-10-19T18:29:35.350Z,99374.13
2022-10-19T18:32:37.257Z,99363.44
2022-10-19T18:35:39.401Z,99347.72
2022-10-19T18:38:41.002Z,99337.06
2022-10-19T18:41:42.534Z,99322.16
2022-10-19T18:44:44.142Z,99302.97
2022-10-19T18:47:45.628Z,99288.31
2022-10-19T18:50:47.366Z,99287.00
2022-10-19T18:53:49.173Z,99290.19
2022-10-19T18:56:50.652Z,99282.47
2022-10-19T18:59:52.142Z,99280.59
2022-10-19T19:02:54.486Z,99276.84
2022-10-19T19:06:00.387Z,99288.06
2022-10-19T19:09:03.114Z,99285.13
2022-10-19T19:12:04.785Z,99292.84
2022-10-19T19:15:08.464Z,99297.13
2022-10-19T19:18:10.068Z,99288.06
2022-10-19T19:21:16.729Z,99301.94
2022-10-19T19:24:19.383Z,99296.84
2022-10-19T19:27:22.932Z,99300.84
2022-10-19T19:30:24.603Z,99290.19
2022-10-19T19:33:26.347Z,99289.66
2022-10-19T19:36:27.978Z,99281.16
2022-10-19T19:39:29.719Z,99267.28
2022-10-19T19:42:31.431Z,99268.34
2022-10-19T19:45:32.945Z,99266.47
2022-10-19T19:48:34.817Z,99254.22
2022-10-19T19:51:36.384Z,99239.56
2022-10-19T19:54:37.950Z,99243.31
2022-10-19T19:57:39.546Z,99242.50
2022-10-19T20:00:41.567Z,99243.31
2022-10-19T20:03:43.472Z,99235.31
2022-10-19T20:06:45.097Z,99241.19
2022-10-19T20:09:46.788Z,99223.06
2022-10-19T20:12:48.376Z,99223.84
2022-10-19T20:15:49.906Z,99217.47
2022-10-19T20:18:52.322Z,99202.81
2022-10-19T20:21:56.262Z,99198.53
2022-10-19T20:24:57.926Z,99198.00
2022-10-19T20:27:59.496Z,99200.69
2022-10-19T20:31:01.114Z,99181.50
2022-10-19T20:34:02.640Z,99183.09
2022-10-19T20:37:04.159Z,99176.69
2022-10-19T20:40:08.790Z,99175.38
2022-10-19T20:43:11.389Z,99156.97
2022-10-19T20:46:31.291Z,99155.09
2022-10-19T20:49:32.849Z,99139.41
2022-10-19T20:52:34.797Z,99156.44
2022-10-19T20:55:36.488Z,99154.06
2022-10-19T20:58:40.378Z,99143.66
2022-10-19T21:01:42.465Z,99145.28
2022-10-19T21:04:44.005Z,99136.75
2022-10-19T21:07:45.609Z,99135.94
2022-10-19T21:10:47.174Z,99145.25
2022-10-19T21:13:48.872Z,99143.41
2022-10-19T21:16:50.473Z,99115.72
2022-10-19T21:19:52.126Z,99126.88
2022-10-19T21:22:53.645Z,99117.59
2022-10-19T21:25:55.428Z,99117.81
2022-10-19T21:28:57.061Z,99127.13
2022-10-19T21:31:58.797Z,99125.00
2022-10-19T21:35:00.285Z,99120.72
2022-10-19T21:38:01.862Z,99125.78
2022-10-19T21:41:04.947Z,99116.69
2022-10-19T21:44:06.528Z,99108.44
2022-10-19T21:47:08.113Z,99101.53
2022-10-19T21:50:09.752Z,99099.13
2022-10-19T21:53:11.998Z,99092.47
2022-10-19T21:56:14.661Z,99073.56
2022-10-19T21:59:16.221Z,99069.31
2022-10-19T22:02:17.778Z,99063.94
2022-10-19T22:05:19.324Z,99062.06
2022-10-19T22:08:20.837Z,99066.06
2022-10-19T22:11:22.466Z,99071.97
2022-10-19T22:14:24.091Z,99066.38
2022-10-19T22:17:25.628Z,99069.56
2022-10-19T22:20:27.165Z,99062.13
2022-10-19T22:23:28.820Z,99058.41
2022-10-19T22:26:32.101Z,99052.25
2022-10-19T22:29:33.631Z,99049.09
2022-10-19T22:32:35.398Z,99036.56
2022-10-19T22:35:37.122Z,99022.44
2022-10-19T22:38:38.809Z,99021.13
2022-10-19T22:42:17.978Z,98995.56
2022-10-19T22:45:38.001Z,98991.81
2022-10-19T22:48:39.545Z,98991.81
2022-10-19T22:51:41.098Z,98989.72
2022-10-19T22:54:43.046Z,99001.41
2022-10-19T22:57:44.566Z,98993.16
2022-10-19T23:00:46.395Z,98988.63
2022-10-19T23:03:48.054Z,98961.75
2022-10-19T23:06:49.584Z,98951.09
2022-10-19T23:09:51.417Z,98944.97
2022-10-19T23:12:53.362Z,98955.09
2022-10-19T23:15:54.945Z,98936.72
2022-10-19T23:18:56.506Z,98938.59
2022-10-19T23:21:58.173Z,98937.53
2022-10-19T23:24:59.708Z,98934.06
2022-10-19T23:28:01.313Z,98931.41
2022-10-19T23:31:04.632Z,98926.31
2022-10-19T23:34:06.158Z,98922.06
2022-10-19T23:37:07.713Z,98921.00
2022-10-19T23:40:09.455Z,98928.44
2022-10-19T23:43:11.408Z,98933.78
2022-10-19T23:46:13.184Z,98930.53
2022-10-19T23:49:14.829Z,98920.47
2022-10-19T23:52:16.414Z,98909.50
2022-10-19T23:55:17.974Z,98885.81
2022-10-19T23:58:19.951Z,98876.22
